createdAt,value
2022-10-11T00:04:11.067Z,99.90
2022-10-11T00:09:16.294Z,99.90
2022-10-11T00:14:20.017Z,99.90
2022-10-11T00:19:23.980Z,99.90
2022-10-11T00:24:29.321Z,99.90
2022-10-11T00:29:32.958Z,99.90
2022-10-11T00:34:36.772Z,99.90
2022-10-11T00:39:41.938Z,99.90
2022-10-11T00:44:48.323Z,99.90
2022-10-11T00:49:57.562Z,99.90
2022-10-11T00:55:07.511Z,99.90
2022-10-11T01:00:13.803Z,99.90
2022-10-11T01:05:29.541Z,99.90
2022-10-11T01:10:35.337Z,99.90
2022-10-11T01:15:46.767Z,99.90
2022-10-11T01:20:59.521Z,99.90
2022-10-11T01:26:34.646Z,99.90
2022-10-11T01:31:43.119Z,99.90
2022-10-11T01:36:50.883Z,99.90
2022-10-11T01:41:57.695Z,99.90
2022-10-11T01:47:02.892Z,99.90
2022-10-11T01:52:08.264Z,99.90
2022-10-11T01:57:44.598Z,99.90
2022-10-11T02:03:03.143Z,99.90
2022-10-11T02:08:16.310Z,99.90
2022-10-11T02:13:25.426Z,99.90
2022-10-11T02:18:34.345Z,99.90
2022-10-11T02:23:43.022Z,99.90
2022-10-11T02:28:49.354Z,99.90
2022-10-11T02:33:59.684Z,99.90
2022-10-11T02:39:09.361Z,99.90
2022-10-11T02:44:17.301Z,99.90
2022-10-11T02:49:22.777Z,99.90
2022-10-11T02:54:26.858Z,99.90
2022-10-11T02:59:30.767Z,99.90
2022-10-11T03:04:35.893Z,99.90
2022-10-11T03:09:39.593Z,99.90
2022-10-11T03:14:43.216Z,99.90
2022-10-11T03:19:48.598Z,99.90
2022-10-11T03:24:52.273Z,99.90
2022-10-11T03:29:56.181Z,99.90
2022-10-11T03:35:01.267Z,99.90
2022-10-11T03:40:05.892Z,99.90
2022-10-11T03:45:12.246Z,99.90
2022-10-11T03:50:17.372Z,99.90
2022-10-11T03:55:21.274Z,99.90
2022-10-11T04:00:25.229Z,99.90
2022-10-11T04:05:30.237Z,99.90
2022-10-11T04:10:34.048Z,99.90
2022-10-11T04:15:38.278Z,99.90
2022-10-11T04:20:43.328Z,99.90
2022-10-11T04:25:48.303Z,99.90
2022-10-11T04:30:52.369Z,99.90
2022-10-11T04:35:58.477Z,99.90
2022-10-11T04:41:08.375Z,99.90
2022-10-11T04:46:12.096Z,99.90
2022-10-11T04:51:17.515Z,99.90
2022-10-11T04:56:21.457Z,99.90
2022-10-11T05:01:25.209Z,99.90
2022-10-11T05:06:30.263Z,99.90
2022-10-11T05:11:33.886Z,99.90
2022-10-11T05:16:37.542Z,99.90
2022-10-11T05:21:42.658Z,99.90
2022-10-11T05:26:46.421Z,99.90
2022-10-11T05:31:50.161Z,99.90
2022-10-11T05:36:56.490Z,99.90
2022-10-11T05:42:00.200Z,99.90
2022-10-11T05:47:04.144Z,99.90
2022-10-11T05:52:10.760Z,99.90
2022-10-11T05:57:14.471Z,99.90
2022-10-11T06:02:18.107Z,99.90
2022-10-11T06:07:23.384Z,99.90
2022-10-11T06:12:27.072Z,99.90
2022-10-11T06:17:30.883Z,99.90
2022-10-11T06:22:36.002Z,99.90
2022-10-11T06:27:39.762Z,99.90
2022-10-11T06:32:43.477Z,99.90
2022-10-11T06:37:48.526Z,99.90
2022-10-11T06:42:52.209Z,99.90
2022-10-11T06:47:55.898Z,99.90
2022-10-11T06:53:01.161Z,99.90
2022-10-11T06:58:04.911Z,99.90
2022-10-11T07:03:09.711Z,99.90
2022-10-11T07:08:15.013Z,99.90
2022-10-11T07:13:18.797Z,99.90
2022-10-11T07:18:23.219Z,99.90
2022-10-11T07:23:28.290Z,99.90
2022-10-11T07:28:32.379Z,99.90
2022-10-11T07:33:36.393Z,99.90
2022-10-11T07:38:42.996Z,99.90
2022-10-11T07:43:47.946Z,99.90
2022-10-11T07:48:51.793Z,99.90
2022-10-11T07:53:58.148Z,99.90
2022-10-11T07:59:03.577Z,99.90
2022-10-11T08:04:07.378Z,99.90
2022-10-11T08:09:12.867Z,99.90
2022-10-11T08:14:16.702Z,99.90
2022-10-11T08:19:20.754Z,99.90
2022-10-11T08:24:25.834Z,99.90
2022-10-11T08:29:29.585Z,99.90
2022-10-11T08:34:33.561Z,99.90
2022-10-11T08:39:38.632Z,99.90
2022-10-11T08:45:09.433Z,99.90
2022-10-11T08:50:18.309Z,99.90
2022-10-11T08:55:34.817Z,99.90
2022-10-11T09:00:39.319Z,99.90
2022-10-11T09:05:57.770Z,99.90
2022-10-11T09:11:12.354Z,99.30
2022-10-11T09:16:26.519Z,99.90
2022-10-11T09:21:37.439Z,98.30
2022-10-11T09:26:49.949Z,96.60
2022-10-11T09:31:55.944Z,95.50
2022-10-11T09:37:08.500Z,95.60
2022-10-11T09:42:13.633Z,94.00
2022-10-11T09:47:20.518Z,92.20
2022-10-11T09:52:25.874Z,91.40
2022-10-11T09:57:34.194Z,87.90
2022-10-11T10:02:43.491Z,84.20
2022-10-11T10:08:05.034Z,81.40
2022-10-11T10:13:22.056Z,78.50
2022-10-11T10:18:31.065Z,75.20
2022-10-11T10:23:37.549Z,75.70
2022-10-11T10:28:56.280Z,74.60
2022-10-11T10:34:00.806Z,69.40
2022-10-11T10:39:11.276Z,69.90
2022-10-11T10:44:16.633Z,67.40
2022-10-11T10:49:52.502Z,67.10
2022-10-11T10:54:56.862Z,65.20
2022-10-11T11:00:14.641Z,65.20
2022-10-11T11:05:26.545Z,65.70
2022-10-11T11:10:36.284Z,66.50
2022-10-11T11:15:48.499Z,65.90
2022-10-11T11:21:06.297Z,65.50
2022-10-11T11:26:19.497Z,65.90
2022-10-11T11:31:46.097Z,68.00
2022-10-11T11:36:55.449Z,68.80
2022-10-11T11:42:05.436Z,67.50
2022-10-11T11:47:17.929Z,71.30
2022-10-11T11:52:27.441Z,69.90
2022-10-11T11:57:43.287Z,68.50
2022-10-11T12:02:54.433Z,69.80
2022-10-11T12:08:01.354Z,71.90
2022-10-11T12:13:16.882Z,73.30
2022-10-11T12:18:22.370Z,75.40
2022-10-11T12:23:46.518Z,76.20
2022-10-11T12:29:38.393Z,78.20
2022-10-11T12:34:44.969Z,78.60
2022-10-11T12:39:52.797Z,79.10
2022-10-11T12:45:32.389Z,80.00
2022-10-11T12:50:46.531Z,80.70
2022-10-11T12:55:58.445Z,82.00
2022-10-11T13:01:13.077Z,83.10
2022-10-11T13:06:21.282Z,84.20
2022-10-11T13:11:29.282Z,82.50
2022-10-11T13:16:51.400Z,82.60
2022-10-11T13:21:58.367Z,83.20
2022-10-11T13:27:03.395Z,82.10
2022-10-11T13:32:09.863Z,80.60
2022-10-11T13:37:19.275Z,80.80
2022-10-11T13:42:27.061Z,80.30
2022-10-11T13:47:32.908Z,80.10
2022-10-11T13:52:48.628Z,80.00
2022-10-11T13:57:53.329Z,79.60
2022-10-11T14:03:00.902Z,79.60
2022-10-11T14:08:08.730Z,80.40
2022-10-11T14:13:24.727Z,80.40
2022-10-11T14:18:50.692Z,81.90
2022-10-11T14:23:58.276Z,81.10
2022-10-11T14:29:05.740Z,81.50
2022-10-11T14:34:16.045Z,81.50
2022-10-11T14:39:23.064Z,82.50
2022-10-11T14:44:29.199Z,82.00
2022-10-11T14:49:34.619Z,82.10
2022-10-11T14:54:39.682Z,82.00
2022-10-11T14:59:45.294Z,82.60
2022-10-11T15:04:48.939Z,82.60
2022-10-11T15:09:54.030Z,82.90
2022-10-11T15:14:57.743Z,83.00
2022-10-11T15:20:01.467Z,83.90
2022-10-11T15:25:07.344Z,83.30
2022-10-11T15:30:20.088Z,84.10
2022-10-11T15:35:24.975Z,83.90
2022-10-11T15:40:33.708Z,83.70
2022-10-11T15:45:37.994Z,83.70
2022-10-11T15:50:41.843Z,83.60
2022-10-11T15:55:49.623Z,83.90
2022-10-11T16:00:55.763Z,83.00
2022-10-11T16:06:04.925Z,83.30
2022-10-11T16:11:12.655Z,83.40
2022-10-11T16:16:16.593Z,84.20
2022-10-11T16:21:21.529Z,84.90
2022-10-11T16:26:27.214Z,84.70
2022-10-11T16:31:30.940Z,85.50
2022-10-11T16:36:40.676Z,86.00
2022-10-11T16:41:46.982Z,87.60
2022-10-11T16:46:50.804Z,87.60
2022-10-11T16:51:56.095Z,88.30
2022-10-11T16:57:01.305Z,88.70
2022-10-11T17:02:05.696Z,89.70
2022-10-11T17:07:13.019Z,90.20
2022-10-11T17:12:21.523Z,90.60
2022-10-11T17:17:25.520Z,91.10
2022-10-11T17:22:29.888Z,91.40
2022-10-11T17:27:35.136Z,91.70
2022-10-11T17:32:38.856Z,92.00
2022-10-11T17:37:42.571Z,92.30
2022-10-11T17:42:47.815Z,92.60
2022-10-11T17:47:51.613Z,92.90
2022-10-11T17:52:55.372Z,93.20
2022-10-11T17:58:00.459Z,93.30
2022-10-11T18:03:04.596Z,93.70
2022-10-11T18:08:08.972Z,93.80
2022-10-11T18:13:15.426Z,94.00
2022-10-11T18:18:19.383Z,94.30
2022-10-11T18:23:23.285Z,94.50
2022-10-11T18:28:28.404Z,94.70
2022-10-11T18:33:32.385Z,94.90
2022-10-11T18:38:38.036Z,95.00
2022-10-11T18:43:43.196Z,95.20
2022-10-11T18:48:49.398Z,95.40
2022-10-11T18:53:53.793Z,95.50
2022-10-11T18:58:59.982Z,95.70
2022-10-11T19:04:05.483Z,95.90
2022-10-11T19:09:11.352Z,96.00
2022-10-11T19:14:18.965Z,96.10
2022-10-11T19:19:24.925Z,96.30
2022-10-11T19:24:30.262Z,96.40
2022-10-11T19:29:35.420Z,96.40
2022-10-11T19:34:39.235Z,96.50
2022-10-11T19:39:42.966Z,96.60
2022-10-11T19:44:48.145Z,96.70
2022-10-11T19:49:51.837Z,96.80
2022-10-11T19:54:55.518Z,96.80
2022-10-11T20:00:00.593Z,96.90
2022-10-11T20:05:04.647Z,97.00
2022-10-11T20:10:08.748Z,97.10
2022-10-11T20:15:14.077Z,97.10
2022-10-11T20:20:19.306Z,97.20
2022-10-11T20:25:23.262Z,97.30
2022-10-11T20:30:28.543Z,97.30
2022-10-11T20:35:32.304Z,97.80
2022-10-11T20:40:40.454Z,97.80
2022-10-11T20:45:45.648Z,97.70
2022-10-11T20:50:49.377Z,97.70
2022-10-11T20:55:53.524Z,97.80
2022-10-11T21:00:58.712Z,98.00
2022-10-11T21:06:02.547Z,98.10
2022-10-11T21:11:07.145Z,98.10
2022-10-11T21:16:15.107Z,98.20
2022-10-11T21:21:19.482Z,98.30
2022-10-11T21:26:23.302Z,98.40
2022-10-11T21:31:33.601Z,98.50
2022-10-11T21:36:37.980Z,98.50
2022-10-11T21:41:43.121Z,98.60
2022-10-11T21:47:06.185Z,99.00
2022-10-11T21:52:11.323Z,98.80
2022-10-11T21:57:15.157Z,98.90
2022-10-11T22:02:20.224Z,98.90
2022-10-11T22:07:23.911Z,99.00
2022-10-11T22:12:27.716Z,99.00
2022-10-11T22:17:32.797Z,99.10
2022-10-11T22:22:39.020Z,99.20
2022-10-11T22:27:42.749Z,99.20
2022-10-11T22:32:47.876Z,99.20
2022-10-11T22:37:51.587Z,99.60
2022-10-11T22:42:55.442Z,99.40
2022-10-11T22:48:00.567Z,99.30
2022-10-11T22:53:05.503Z,99.40
2022-10-11T22:58:09.150Z,99.50
2022-10-11T23:03:16.235Z,99.50
2022-10-11T23:08:20.037Z,99.90
2022-10-11T23:13:24.001Z,99.60
2022-10-11T23:18:29.057Z,99.60
2022-10-11T23:23:32.867Z,99.90
2022-10-11T23:28:36.791Z,99.70
2022-10-11T23:33:42.083Z,99.80
2022-10-11T23:38:46.564Z,99.80
2022-10-11T23:43:50.444Z,99.90
2022-10-11T23:48:55.500Z,99.90
2022-10-11T23:53:59.322Z,99.90
2022-10-11T23:59:03.171Z,99.90
